Terminal Aerodrome Forecast
Issued by NWS

Home | Current Version | Previous Version | Text Only | Print | Product List | Glossary On
Versions: 1 2 3 4 5 6 7 8 9 10 11 12
846
FTUS44 KLZK 261739
TAFADF
TAF
KADF 261739Z 2618/2718 12007KT P6SM FEW040
     FM261900 12008KT P6SM VCTS SCT050CB SCT080
     FM270200 08002KT P6SM FEW030 SCT100 BKN250
     FM271100 11004KT P6SM VCSH SCT040 SCT100
      AMD NOT SKED=

USA.gov is the U.S. government's official web portal to all federal, state and local government web resources and services.